sensor_id;sensor_type;location;lat;lon;timestamp;P1;durP1;ratioP1;P2;durP2;ratioP2
49592;SDS011;35499;51.482;4.264;2022-08-19T05:52:45;16.15;;;8.02;;
49592;SDS011;35499;51.482;4.264;2022-08-19T05:55:29;16.00;;;8.13;;
49592;SDS011;35499;51.482;4.264;2022-08-19T05:58:13;14.63;;;8.00;;
49592;SDS011;35499;51.482;4.264;2022-08-19T09:05:03;12.38;;;6.90;;
49592;SDS011;35499;51.482;4.264;2022-08-19T09:10:38;11.15;;;6.25;;
49592;SDS011;35499;51.482;4.264;2022-08-19T09:13:27;11.55;;;6.47;;
49592;SDS011;35499;51.482;4.264;2022-08-19T09:16:14;14.07;;;6.93;;
49592;SDS011;35499;51.482;4.264;2022-08-19T09:19:03;12.97;;;7.07;;
49592;SDS011;35499;51.482;4.264;2022-08-19T09:35:29;11.80;;;7.35;;
49592;SDS011;35499;51.482;4.264;2022-08-19T09:38:13;10.68;;;6.38;;
49592;SDS011;35499;51.482;4.264;2022-08-19T09:41:01;14.18;;;7.65;;
49592;SDS011;35499;51.482;4.264;2022-08-19T09:43:45;15.50;;;7.82;;
49592;SDS011;35499;51.482;4.264;2022-08-19T09:46:30;16.70;;;8.40;;
49592;SDS011;35499;51.482;4.264;2022-08-19T09:49:17;17.30;;;9.43;;
49592;SDS011;35499;51.482;4.264;2022-08-19T10:11:16;25.42;;;13.88;;
49592;SDS011;35499;51.482;4.264;2022-08-19T10:25:03;23.27;;;11.02;;
49592;SDS011;35499;51.482;4.264;2022-08-19T10:27:47;22.38;;;11.63;;
49592;SDS011;35499;51.482;4.264;2022-08-19T10:30:31;19.83;;;10.93;;
49592;SDS011;35499;51.482;4.264;2022-08-19T10:33:15;21.25;;;10.95;;
49592;SDS011;35499;51.482;4.264;2022-08-19T10:36:00;18.52;;;10.63;;
49592;SDS011;35499;51.482;4.264;2022-08-19T10:38:49;19.40;;;9.50;;
49592;SDS011;35499;51.482;4.264;2022-08-19T10:41:35;16.67;;;8.70;;
49592;SDS011;35499;51.482;4.264;2022-08-19T10:44:20;16.02;;;9.27;;
49592;SDS011;35499;51.482;4.264;2022-08-19T10:47:05;16.52;;;9.65;;
49592;SDS011;35499;51.482;4.264;2022-08-19T10:49:49;20.52;;;10.57;;
49592;SDS011;35499;51.482;4.264;2022-08-19T10:52:52;17.58;;;9.57;;
49592;SDS011;35499;51.482;4.264;2022-08-19T10:55:36;19.45;;;9.45;;
49592;SDS011;35499;51.482;4.264;2022-08-19T10:58:39;18.42;;;10.52;;
49592;SDS011;35499;51.482;4.264;2022-08-19T11:01:26;20.15;;;9.95;;
49592;SDS011;35499;51.482;4.264;2022-08-19T11:04:10;19.63;;;9.95;;
49592;SDS011;35499;51.482;4.264;2022-08-19T11:06:56;17.58;;;10.70;;
49592;SDS011;35499;51.482;4.264;2022-08-19T11:09:41;17.13;;;8.48;;
49592;SDS011;35499;51.482;4.264;2022-08-19T11:12:25;20.40;;;9.57;;
49592;SDS011;35499;51.482;4.264;2022-08-19T11:15:11;17.02;;;8.95;;
49592;SDS011;35499;51.482;4.264;2022-08-19T11:17:55;20.38;;;9.88;;
49592;SDS011;35499;51.482;4.264;2022-08-19T11:20:39;20.40;;;8.88;;
49592;SDS011;35499;51.482;4.264;2022-08-19T11:23:23;21.35;;;9.77;;
49592;SDS011;35499;51.482;4.264;2022-08-19T11:26:07;15.82;;;8.68;;
49592;SDS011;35499;51.482;4.264;2022-08-19T11:28:51;17.45;;;9.13;;
49592;SDS011;35499;51.482;4.264;2022-08-19T11:31:38;18.95;;;8.57;;
49592;SDS011;35499;51.482;4.264;2022-08-19T11:34:24;15.63;;;8.35;;
49592;SDS011;35499;51.482;4.264;2022-08-19T11:37:09;16.10;;;8.73;;
49592;SDS011;35499;51.482;4.264;2022-08-19T11:39:53;14.07;;;6.93;;
49592;SDS011;35499;51.482;4.264;2022-08-19T11:42:38;12.73;;;7.03;;
49592;SDS011;35499;51.482;4.264;2022-08-19T11:45:40;13.63;;;7.20;;
49592;SDS011;35499;51.482;4.264;2022-08-19T11:48:25;13.30;;;7.10;;
49592;SDS011;35499;51.482;4.264;2022-08-19T11:51:11;12.63;;;7.25;;
49592;SDS011;35499;51.482;4.264;2022-08-19T11:53:56;12.40;;;7.28;;
49592;SDS011;35499;51.482;4.264;2022-08-19T11:56:40;14.93;;;7.03;;
49592;SDS011;35499;51.482;4.264;2022-08-19T11:59:24;15.90;;;8.40;;
49592;SDS011;35499;51.482;4.264;2022-08-19T12:02:10;14.23;;;7.97;;
49592;SDS011;35499;51.482;4.264;2022-08-19T12:04:54;14.10;;;7.10;;
49592;SDS011;35499;51.482;4.264;2022-08-19T12:07:39;14.40;;;7.15;;
49592;SDS011;35499;51.482;4.264;2022-08-19T12:10:23;13.27;;;7.63;;
49592;SDS011;35499;51.482;4.264;2022-08-19T12:13:07;16.17;;;7.88;;
49592;SDS011;35499;51.482;4.264;2022-08-19T12:15:52;18.98;;;9.48;;
49592;SDS011;35499;51.482;4.264;2022-08-19T12:18:37;12.18;;;7.22;;
49592;SDS011;35499;51.482;4.264;2022-08-19T12:21:22;13.02;;;6.85;;
49592;SDS011;35499;51.482;4.264;2022-08-19T12:24:06;10.27;;;6.65;;
49592;SDS011;35499;51.482;4.264;2022-08-19T12:26:50;11.33;;;6.27;;
49592;SDS011;35499;51.482;4.264;2022-08-19T12:29:34;11.55;;;6.38;;
49592;SDS011;35499;51.482;4.264;2022-08-19T12:32:18;10.02;;;6.18;;
49592;SDS011;35499;51.482;4.264;2022-08-19T12:35:03;11.20;;;6.55;;
49592;SDS011;35499;51.482;4.264;2022-08-19T12:37:48;11.68;;;5.70;;
49592;SDS011;35499;51.482;4.264;2022-08-19T12:40:32;10.85;;;6.72;;
49592;SDS011;35499;51.482;4.264;2022-08-19T12:43:16;12.57;;;6.47;;
49592;SDS011;35499;51.482;4.264;2022-08-19T12:46:00;8.63;;;5.65;;
49592;SDS011;35499;51.482;4.264;2022-08-19T12:48:44;14.02;;;6.57;;
49592;SDS011;35499;51.482;4.264;2022-08-19T12:51:29;9.45;;;6.10;;
49592;SDS011;35499;51.482;4.264;2022-08-19T12:54:15;11.77;;;6.63;;
49592;SDS011;35499;51.482;4.264;2022-08-19T12:56:59;11.65;;;6.28;;
49592;SDS011;35499;51.482;4.264;2022-08-19T12:59:43;11.90;;;6.88;;
49592;SDS011;35499;51.482;4.264;2022-08-19T13:02:28;10.52;;;6.85;;
49592;SDS011;35499;51.482;4.264;2022-08-19T13:05:20;8.95;;;5.82;;
49592;SDS011;35499;51.482;4.264;2022-08-19T13:08:06;10.00;;;6.20;;
49592;SDS011;35499;51.482;4.264;2022-08-19T13:10:50;11.68;;;6.82;;
49592;SDS011;35499;51.482;4.264;2022-08-19T13:13:34;10.52;;;6.30;;
49592;SDS011;35499;51.482;4.264;2022-08-19T13:16:20;10.05;;;5.72;;
49592;SDS011;35499;51.482;4.264;2022-08-19T13:19:05;11.55;;;6.95;;
49592;SDS011;35499;51.482;4.264;2022-08-19T13:21:49;11.48;;;6.03;;
49592;SDS011;35499;51.482;4.264;2022-08-19T13:24:34;9.15;;;5.50;;
49592;SDS011;35499;51.482;4.264;2022-08-19T13:27:18;9.05;;;5.30;;
49592;SDS011;35499;51.482;4.264;2022-08-19T13:30:03;7.97;;;4.95;;
49592;SDS011;35499;51.482;4.264;2022-08-19T13:33:06;9.60;;;5.20;;
49592;SDS011;35499;51.482;4.264;2022-08-19T13:35:59;9.70;;;5.22;;
49592;SDS011;35499;51.482;4.264;2022-08-19T13:38:44;8.60;;;5.45;;
49592;SDS011;35499;51.482;4.264;2022-08-19T13:41:28;8.55;;;4.90;;
49592;SDS011;35499;51.482;4.264;2022-08-19T13:44:13;8.93;;;4.82;;
49592;SDS011;35499;51.482;4.264;2022-08-19T13:47:02;7.32;;;5.07;;
49592;SDS011;35499;51.482;4.264;2022-08-19T13:49:49;8.75;;;5.53;;
49592;SDS011;35499;51.482;4.264;2022-08-19T13:52:33;8.90;;;5.10;;
49592;SDS011;35499;51.482;4.264;2022-08-19T13:55:17;11.02;;;5.03;;
49592;SDS011;35499;51.482;4.264;2022-08-19T13:58:01;10.77;;;6.00;;
49592;SDS011;35499;51.482;4.264;2022-08-19T14:00:46;8.40;;;5.10;;
49592;SDS011;35499;51.482;4.264;2022-08-19T14:03:31;7.78;;;5.13;;
49592;SDS011;35499;51.482;4.264;2022-08-19T14:06:15;6.70;;;4.65;;
49592;SDS011;35499;51.482;4.264;2022-08-19T14:09:00;6.57;;;4.22;;
49592;SDS011;35499;51.482;4.264;2022-08-19T14:11:45;7.75;;;4.10;;
49592;SDS011;35499;51.482;4.264;2022-08-19T14:14:29;10.27;;;4.85;;
49592;SDS011;35499;51.482;4.264;2022-08-19T14:17:13;7.10;;;4.47;;
49592;SDS011;35499;51.482;4.264;2022-08-19T14:20:00;7.25;;;4.68;;
49592;SDS011;35499;51.482;4.264;2022-08-19T14:22:50;7.07;;;4.30;;
49592;SDS011;35499;51.482;4.264;2022-08-19T14:25:34;7.53;;;4.57;;
49592;SDS011;35499;51.482;4.264;2022-08-19T14:28:18;6.20;;;3.47;;
49592;SDS011;35499;51.482;4.264;2022-08-19T14:31:02;6.45;;;3.50;;
49592;SDS011;35499;51.482;4.264;2022-08-19T14:33:46;9.73;;;5.00;;
49592;SDS011;35499;51.482;4.264;2022-08-19T14:36:31;9.35;;;4.97;;
49592;SDS011;35499;51.482;4.264;2022-08-19T14:39:17;3.53;;;1.88;;
49592;SDS011;35499;51.482;4.264;2022-08-19T14:42:05;7.25;;;3.47;;
49592;SDS011;35499;51.482;4.264;2022-08-19T14:44:51;4.93;;;2.88;;
49592;SDS011;35499;51.482;4.264;2022-08-19T14:47:35;5.60;;;3.13;;
49592;SDS011;35499;51.482;4.264;2022-08-19T14:50:19;5.63;;;3.00;;
49592;SDS011;35499;51.482;4.264;2022-08-19T14:53:06;7.82;;;4.78;;
49592;SDS011;35499;51.482;4.264;2022-08-19T14:55:50;6.63;;;3.33;;
49592;SDS011;35499;51.482;4.264;2022-08-19T14:58:34;8.15;;;2.88;;
49592;SDS011;35499;51.482;4.264;2022-08-19T15:01:19;6.32;;;3.10;;
49592;SDS011;35499;51.482;4.264;2022-08-19T15:04:04;5.28;;;2.80;;
49592;SDS011;35499;51.482;4.264;2022-08-19T15:06:48;8.85;;;3.30;;
49592;SDS011;35499;51.482;4.264;2022-08-19T15:09:34;7.35;;;3.25;;
49592;SDS011;35499;51.482;4.264;2022-08-19T15:12:18;5.90;;;2.65;;
49592;SDS011;35499;51.482;4.264;2022-08-19T15:15:02;6.72;;;3.35;;
49592;SDS011;35499;51.482;4.264;2022-08-19T15:47:50;4.93;;;3.15;;
49592;SDS011;35499;51.482;4.264;2022-08-19T15:50:34;6.82;;;3.40;;
49592;SDS011;35499;51.482;4.264;2022-08-19T15:53:18;6.45;;;3.15;;
49592;SDS011;35499;51.482;4.264;2022-08-19T15:56:02;6.65;;;3.50;;
49592;SDS011;35499;51.482;4.264;2022-08-19T15:58:46;6.38;;;3.42;;
49592;SDS011;35499;51.482;4.264;2022-08-19T16:01:49;6.35;;;3.22;;
49592;SDS011;35499;51.482;4.264;2022-08-19T16:04:52;5.43;;;3.08;;
49592;SDS011;35499;51.482;4.264;2022-08-19T16:07:55;5.68;;;2.80;;
49592;SDS011;35499;51.482;4.264;2022-08-19T16:10:40;4.82;;;2.75;;
49592;SDS011;35499;51.482;4.264;2022-08-19T16:13:23;7.47;;;3.53;;
49592;SDS011;35499;51.482;4.264;2022-08-19T16:16:08;6.28;;;3.08;;
49592;SDS011;35499;51.482;4.264;2022-08-19T16:18:52;7.53;;;3.30;;
49592;SDS011;35499;51.482;4.264;2022-08-19T16:21:36;5.55;;;2.63;;
49592;SDS011;35499;51.482;4.264;2022-08-19T16:24:23;6.00;;;2.80;;
49592;SDS011;35499;51.482;4.264;2022-08-19T16:27:08;5.50;;;2.35;;
49592;SDS011;35499;51.482;4.264;2022-08-19T16:29:52;5.93;;;2.38;;
49592;SDS011;35499;51.482;4.264;2022-08-19T16:32:36;6.30;;;2.15;;
49592;SDS011;35499;51.482;4.264;2022-08-19T16:35:24;4.18;;;2.15;;
49592;SDS011;35499;51.482;4.264;2022-08-19T16:38:08;4.00;;;1.75;;
49592;SDS011;35499;51.482;4.264;2022-08-19T16:40:52;3.20;;;1.40;;
49592;SDS011;35499;51.482;4.264;2022-08-19T16:43:37;6.47;;;1.98;;
49592;SDS011;35499;51.482;4.264;2022-08-19T16:46:22;2.80;;;1.52;;
49592;SDS011;35499;51.482;4.264;2022-08-19T16:49:09;3.35;;;1.40;;
49592;SDS011;35499;51.482;4.264;2022-08-19T16:51:54;5.05;;;1.70;;
49592;SDS011;35499;51.482;4.264;2022-08-19T16:54:38;2.83;;;1.20;;
49592;SDS011;35499;51.482;4.264;2022-08-19T16:57:22;2.20;;;0.85;;
49592;SDS011;35499;51.482;4.264;2022-08-19T17:00:06;3.40;;;1.13;;
49592;SDS011;35499;51.482;4.264;2022-08-19T17:02:56;1.98;;;0.85;;
49592;SDS011;35499;51.482;4.264;2022-08-19T17:08:27;4.00;;;1.60;;
49592;SDS011;35499;51.482;4.264;2022-08-19T17:11:12;3.88;;;1.00;;
49592;SDS011;35499;51.482;4.264;2022-08-19T17:13:56;2.83;;;0.75;;
49592;SDS011;35499;51.482;4.264;2022-08-19T17:16:41;3.05;;;0.50;;
49592;SDS011;35499;51.482;4.264;2022-08-19T17:19:26;2.85;;;0.60;;
49592;SDS011;35499;51.482;4.264;2022-08-19T17:22:10;1.65;;;0.38;;
49592;SDS011;35499;51.482;4.264;2022-08-19T17:24:55;1.63;;;0.70;;
49592;SDS011;35499;51.482;4.264;2022-08-19T17:27:39;4.60;;;0.63;;
49592;SDS011;35499;51.482;4.264;2022-08-19T17:30:23;1.40;;;0.50;;
49592;SDS011;35499;51.482;4.264;2022-08-19T17:33:07;0.95;;;0.38;;
49592;SDS011;35499;51.482;4.264;2022-08-19T17:35:51;3.05;;;0.70;;
49592;SDS011;35499;51.482;4.264;2022-08-19T17:38:35;1.70;;;0.50;;
49592;SDS011;35499;51.482;4.264;2022-08-19T17:41:21;2.22;;;0.70;;
49592;SDS011;35499;51.482;4.264;2022-08-19T17:44:05;1.73;;;0.50;;
49592;SDS011;35499;51.482;4.264;2022-08-19T17:46:49;6.20;;;1.05;;
49592;SDS011;35499;51.482;4.264;2022-08-19T17:49:35;3.25;;;0.77;;
49592;SDS011;35499;51.482;4.264;2022-08-19T17:52:19;3.20;;;0.65;;
49592;SDS011;35499;51.482;4.264;2022-08-19T17:55:05;3.05;;;0.75;;
49592;SDS011;35499;51.482;4.264;2022-08-19T17:57:50;2.25;;;0.60;;
49592;SDS011;35499;51.482;4.264;2022-08-19T18:00:33;6.10;;;1.42;;
49592;SDS011;35499;51.482;4.264;2022-08-19T18:03:18;4.18;;;1.08;;
49592;SDS011;35499;51.482;4.264;2022-08-19T18:06:02;3.80;;;0.93;;
49592;SDS011;35499;51.482;4.264;2022-08-19T18:08:46;4.13;;;1.10;;
49592;SDS011;35499;51.482;4.264;2022-08-19T18:11:32;6.00;;;1.33;;
49592;SDS011;35499;51.482;4.264;2022-08-19T18:14:16;3.45;;;1.13;;
49592;SDS011;35499;51.482;4.264;2022-08-19T18:17:02;3.17;;;1.13;;
49592;SDS011;35499;51.482;4.264;2022-08-19T18:19:48;4.93;;;1.52;;
49592;SDS011;35499;51.482;4.264;2022-08-19T18:22:34;6.45;;;1.65;;
49592;SDS011;35499;51.482;4.264;2022-08-19T18:25:20;3.22;;;1.23;;
49592;SDS011;35499;51.482;4.264;2022-08-19T18:28:08;4.07;;;1.70;;
49592;SDS011;35499;51.482;4.264;2022-08-19T18:30:52;5.05;;;1.50;;
49592;SDS011;35499;51.482;4.264;2022-08-19T18:33:36;4.45;;;1.60;;
49592;SDS011;35499;51.482;4.264;2022-08-19T18:36:20;6.20;;;1.38;;
49592;SDS011;35499;51.482;4.264;2022-08-19T18:39:04;7.72;;;1.90;;
49592;SDS011;35499;51.482;4.264;2022-08-19T18:42:12;5.40;;;1.90;;
49592;SDS011;35499;51.482;4.264;2022-08-19T18:45:25;7.43;;;1.75;;
49592;SDS011;35499;51.482;4.264;2022-08-19T18:48:28;6.53;;;1.67;;
49592;SDS011;35499;51.482;4.264;2022-08-19T18:51:31;4.43;;;2.40;;
49592;SDS011;35499;51.482;4.264;2022-08-19T18:54:16;6.40;;;1.65;;
49592;SDS011;35499;51.482;4.264;2022-08-19T18:57:00;4.85;;;1.50;;
49592;SDS011;35499;51.482;4.264;2022-08-19T18:59:45;4.13;;;1.58;;
49592;SDS011;35499;51.482;4.264;2022-08-19T19:02:35;5.63;;;1.90;;
49592;SDS011;35499;51.482;4.264;2022-08-19T19:05:22;5.10;;;1.63;;
49592;SDS011;35499;51.482;4.264;2022-08-19T19:08:08;5.75;;;1.40;;
49592;SDS011;35499;51.482;4.264;2022-08-19T19:10:52;3.28;;;1.55;;
49592;SDS011;35499;51.482;4.264;2022-08-19T19:13:36;3.80;;;1.55;;
49592;SDS011;35499;51.482;4.264;2022-08-19T19:16:22;2.55;;;1.23;;
49592;SDS011;35499;51.482;4.264;2022-08-19T19:19:06;5.30;;;1.77;;
49592;SDS011;35499;51.482;4.264;2022-08-19T19:21:56;7.60;;;1.83;;
49592;SDS011;35499;51.482;4.264;2022-08-19T19:24:41;3.30;;;1.48;;
49592;SDS011;35499;51.482;4.264;2022-08-19T19:27:28;5.40;;;1.70;;
49592;SDS011;35499;51.482;4.264;2022-08-19T19:30:12;6.03;;;1.95;;
49592;SDS011;35499;51.482;4.264;2022-08-19T19:32:56;5.32;;;1.52;;
49592;SDS011;35499;51.482;4.264;2022-08-19T19:35:41;9.45;;;1.73;;
49592;SDS011;35499;51.482;4.264;2022-08-19T19:38:26;2.67;;;1.20;;
49592;SDS011;35499;51.482;4.264;2022-08-19T19:41:11;6.88;;;1.52;;
49592;SDS011;35499;51.482;4.264;2022-08-19T19:43:56;4.03;;;1.42;;
49592;SDS011;35499;51.482;4.264;2022-08-19T19:46:43;4.97;;;1.30;;
49592;SDS011;35499;51.482;4.264;2022-08-19T19:49:27;2.83;;;1.30;;
49592;SDS011;35499;51.482;4.264;2022-08-19T19:52:14;9.75;;;1.58;;
49592;SDS011;35499;51.482;4.264;2022-08-19T19:54:58;3.35;;;1.15;;
49592;SDS011;35499;51.482;4.264;2022-08-19T19:57:43;3.55;;;1.02;;
49592;SDS011;35499;51.482;4.264;2022-08-19T20:00:27;5.22;;;1.52;;
49592;SDS011;35499;51.482;4.264;2022-08-19T20:03:12;4.18;;;1.92;;
49592;SDS011;35499;51.482;4.264;2022-08-19T20:05:56;3.15;;;1.40;;
49592;SDS011;35499;51.482;4.264;2022-08-19T20:08:41;4.10;;;1.60;;
49592;SDS011;35499;51.482;4.264;2022-08-19T20:14:30;4.68;;;1.70;;
49592;SDS011;35499;51.482;4.264;2022-08-19T20:17:14;4.55;;;1.48;;
49592;SDS011;35499;51.482;4.264;2022-08-19T20:19:58;3.45;;;1.70;;
49592;SDS011;35499;51.482;4.264;2022-08-19T20:22:42;7.78;;;3.40;;
49592;SDS011;35499;51.482;4.264;2022-08-19T20:25:27;7.90;;;3.88;;
49592;SDS011;35499;51.482;4.264;2022-08-19T20:28:10;8.95;;;3.40;;
49592;SDS011;35499;51.482;4.264;2022-08-19T20:30:54;11.82;;;4.20;;
49592;SDS011;35499;51.482;4.264;2022-08-19T20:33:38;10.32;;;4.05;;
49592;SDS011;35499;51.482;4.264;2022-08-19T20:36:22;8.63;;;3.55;;
49592;SDS011;35499;51.482;4.264;2022-08-19T20:39:07;7.78;;;3.30;;
49592;SDS011;35499;51.482;4.264;2022-08-19T20:41:51;7.88;;;3.30;;
49592;SDS011;35499;51.482;4.264;2022-08-19T20:44:35;11.45;;;3.00;;
49592;SDS011;35499;51.482;4.264;2022-08-19T20:47:20;5.07;;;2.30;;
49592;SDS011;35499;51.482;4.264;2022-08-19T20:50:04;7.70;;;2.97;;
49592;SDS011;35499;51.482;4.264;2022-08-19T20:52:49;4.57;;;2.63;;
49592;SDS011;35499;51.482;4.264;2022-08-19T20:55:33;7.25;;;3.08;;
49592;SDS011;35499;51.482;4.264;2022-08-19T20:58:19;6.53;;;3.13;;
49592;SDS011;35499;51.482;4.264;2022-08-19T21:01:04;6.30;;;3.42;;
49592;SDS011;35499;51.482;4.264;2022-08-19T21:03:48;7.05;;;2.83;;
49592;SDS011;35499;51.482;4.264;2022-08-19T21:06:34;8.90;;;2.85;;
49592;SDS011;35499;51.482;4.264;2022-08-19T21:09:18;7.05;;;2.70;;
49592;SDS011;35499;51.482;4.264;2022-08-19T21:12:03;6.43;;;2.70;;
49592;SDS011;35499;51.482;4.264;2022-08-19T21:14:47;6.70;;;2.78;;
49592;SDS011;35499;51.482;4.264;2022-08-19T21:17:31;6.70;;;2.50;;
49592;SDS011;35499;51.482;4.264;2022-08-19T21:20:16;5.18;;;3.10;;
49592;SDS011;35499;51.482;4.264;2022-08-19T21:23:02;6.35;;;3.20;;
49592;SDS011;35499;51.482;4.264;2022-08-19T21:25:46;7.70;;;3.65;;
49592;SDS011;35499;51.482;4.264;2022-08-19T21:28:30;5.60;;;2.28;;
49592;SDS011;35499;51.482;4.264;2022-08-19T21:31:14;4.35;;;2.42;;
49592;SDS011;35499;51.482;4.264;2022-08-19T21:33:59;5.10;;;3.08;;
49592;SDS011;35499;51.482;4.264;2022-08-19T21:36:44;4.30;;;2.85;;
49592;SDS011;35499;51.482;4.264;2022-08-19T21:39:28;5.82;;;2.78;;
49592;SDS011;35499;51.482;4.264;2022-08-19T21:42:12;5.90;;;2.55;;
49592;SDS011;35499;51.482;4.264;2022-08-19T21:44:56;5.13;;;2.45;;
49592;SDS011;35499;51.482;4.264;2022-08-19T21:47:40;8.65;;;2.95;;
49592;SDS011;35499;51.482;4.264;2022-08-19T21:50:24;5.25;;;2.55;;
49592;SDS011;35499;51.482;4.264;2022-08-19T21:53:09;3.38;;;2.45;;
49592;SDS011;35499;51.482;4.264;2022-08-19T21:55:52;6.28;;;1.88;;
49592;SDS011;35499;51.482;4.264;2022-08-19T22:04:35;6.75;;;2.35;;
49592;SDS011;35499;51.482;4.264;2022-08-19T22:07:22;5.07;;;2.50;;
49592;SDS011;35499;51.482;4.264;2022-08-19T22:10:06;5.40;;;2.50;;
49592;SDS011;35499;51.482;4.264;2022-08-19T22:12:51;5.40;;;2.42;;
49592;SDS011;35499;51.482;4.264;2022-08-19T22:15:35;5.40;;;2.55;;
49592;SDS011;35499;51.482;4.264;2022-08-19T22:18:19;4.68;;;2.60;;
49592;SDS011;35499;51.482;4.264;2022-08-19T22:21:03;6.05;;;2.85;;
49592;SDS011;35499;51.482;4.264;2022-08-19T22:23:49;6.40;;;2.63;;
49592;SDS011;35499;51.482;4.264;2022-08-19T22:26:33;6.55;;;2.80;;
49592;SDS011;35499;51.482;4.264;2022-08-19T22:29:17;8.18;;;2.83;;
49592;SDS011;35499;51.482;4.264;2022-08-19T22:32:01;4.80;;;2.00;;
49592;SDS011;35499;51.482;4.264;2022-08-19T22:34:45;11.70;;;2.78;;
49592;SDS011;35499;51.482;4.264;2022-08-19T22:37:29;7.47;;;2.47;;
49592;SDS011;35499;51.482;4.264;2022-08-19T22:40:14;6.20;;;2.88;;
49592;SDS011;35499;51.482;4.264;2022-08-19T22:42:59;6.10;;;2.40;;
49592;SDS011;35499;51.482;4.264;2022-08-19T22:45:44;7.68;;;2.60;;
49592;SDS011;35499;51.482;4.264;2022-08-19T22:48:29;6.93;;;2.65;;
49592;SDS011;35499;51.482;4.264;2022-08-19T22:51:13;6.45;;;2.58;;
49592;SDS011;35499;51.482;4.264;2022-08-19T22:54:17;8.48;;;2.60;;
49592;SDS011;35499;51.482;4.264;2022-08-19T22:57:01;8.18;;;2.38;;
49592;SDS011;35499;51.482;4.264;2022-08-19T22:59:46;5.97;;;2.30;;
49592;SDS011;35499;51.482;4.264;2022-08-19T23:02:35;7.40;;;3.35;;
49592;SDS011;35499;51.482;4.264;2022-08-19T23:05:23;12.27;;;3.63;;
49592;SDS011;35499;51.482;4.264;2022-08-19T23:08:08;12.55;;;3.60;;
49592;SDS011;35499;51.482;4.264;2022-08-19T23:10:52;11.73;;;3.25;;
49592;SDS011;35499;51.482;4.264;2022-08-19T23:13:36;7.20;;;2.58;;
49592;SDS011;35499;51.482;4.264;2022-08-19T23:16:21;8.90;;;2.88;;
49592;SDS011;35499;51.482;4.264;2022-08-19T23:19:07;9.38;;;2.65;;
49592;SDS011;35499;51.482;4.264;2022-08-19T23:21:51;12.40;;;3.90;;
49592;SDS011;35499;51.482;4.264;2022-08-19T23:24:35;10.02;;;3.10;;
49592;SDS011;35499;51.482;4.264;2022-08-19T23:27:22;8.40;;;2.85;;
49592;SDS011;35499;51.482;4.264;2022-08-19T23:30:29;7.97;;;3.03;;
49592;SDS011;35499;51.482;4.264;2022-08-19T23:35:58;10.02;;;3.38;;
49592;SDS011;35499;51.482;4.264;2022-08-19T23:38:43;11.30;;;4.45;;
49592;SDS011;35499;51.482;4.264;2022-08-19T23:41:28;10.60;;;4.43;;
49592;SDS011;35499;51.482;4.264;2022-08-19T23:44:12;12.73;;;4.15;;
49592;SDS011;35499;51.482;4.264;2022-08-19T23:46:56;13.43;;;5.70;;
49592;SDS011;35499;51.482;4.264;2022-08-19T23:49:40;9.25;;;4.38;;
49592;SDS011;35499;51.482;4.264;2022-08-19T23:52:25;10.18;;;4.18;;
49592;SDS011;35499;51.482;4.264;2022-08-19T23:55:11;10.57;;;4.47;;
49592;SDS011;35499;51.482;4.264;2022-08-19T23:57:55;9.13;;;4.57;;
